Language selection

My Weather Profile Weather Topics  | 

Lake Nipigon: Past 24 Hour Conditions

 

Kenora Airport

10:00 PM CST 26 January 2021
Disclaimer

This table is a summary of hourly weather conditions for the past 24 hours.
Please note that these observations might not always be representative of weather conditions over their associated marine area.

Date / Time
(CST)
Wind(knots) Conditions Visibility(km) Pressure(kPa) Air tempC) Relative humidity(%) Dew pointC) Wind Chill
26 January 2021
22:00 N 3 Clear 32 103.3 -26 77 -29 -32
21:00 NNW 4 Clear 32 103.3 -25 76 -28 -32
20:00 NW 4 Clear 32 103.3 -24 74 -27 -30
19:00 NW 4 Mainly Clear 32 103.2 -24 74 -27 -31
18:00 NW 4 Mainly Clear 32 103.2 -23 74 -26 -30
17:00 NW 5 Mainly Sunny 32 103.1 -22 72 -26 -29
16:00 NNW 6 Mainly Sunny 32 103.0 -21 69 -26 -30
15:00 NNW 8 Mainly Sunny 32 103.0 -21 67 -26 -30
14:00 NW 6 Mainly Sunny 32 103.0 -21 68 -26 -29
13:00 NNW 5 Ice Crystals 32 103.0 -22 69 -26 -29
12:00 NNW 5 Ice Crystals 32 103.0 -23 74 -26 -30
11:00 NNW 9 Ice Crystals 32 103.0 -24 75 -28 -35
10:00 NNW 4 Mainly Sunny 32 103.0 -26 77 -29 -33
9:00 N 4 Mainly Sunny 32 103.0 -27 78 -30 -34
8:00 NNW 5 Mainly Sunny 32 103.0 -27 79 -30 -35
7:00 N 4 Mainly Clear 32 102.9 -27 79 -30 -34
6:00 N 4 Partly Cloudy 32 102.9 -26 79 -29 -33
5:00 N 3 Partly Cloudy 32 102.9 -26 78 -29 -31
4:00 NNE 4 Mostly Cloudy 32 102.9 -26 79 -28 -32
3:00 N 4 Mostly Cloudy 32 102.9 -25 78 -28 -31
2:00 N 3 Cloudy 32 102.9 -24 76 -27 -29
1:00 NNW 2 Cloudy 32 102.9 -23 76 -26 -26
0:00 N 4 Cloudy 32 102.9 -23 76 -26 -30
25 January 2021
23:00 NNW 4 Cloudy 32 103.0 -23 75 -26 -29
22:00 N 5 Cloudy 32 102.9 -22 76 -26 -30

Zoom-in to make a selection

Map of Great Lakes - Lake Superior marine weather areas Mid Superior - 45001 East Superior - 45004 West Superior - 45006 Slate Island - 45136 Lake Of the Woods - 45148 Kenora Airport Royal Island Armstrong Airport Caribou Island Marathon Airport Pukaskwa National Park Thunder Bay Airport Welcome Island Little Flatland Island Sault Ste. Marie Airport Wawa Airport
Legend:
buoy Buoy
land station Land Station

Great Lakes - Lake Superior Area

Another Region

What we are doing

Features

Need to travel Alberta Highway 93?

Go prepared with Highway 93 forecasts. Highway regions are available in the Alberta text forecast bulletin between Lake Louise and Jasper. (Photo by: Natalie Anderson)

Date modified: